Time;durP1;ratioP1;P1;durP2;ratioP2;P2;SDS_P1;SDS_P2;PMS_P1;PMS_P2;Temp;Humidity;BMP_temperature;BMP_pressure;BME280_temperature;BME280_humidity;BME280_pressure;Samples;Min_cycle;Max_cycle;Signal;HPM_P1;HPM_P2
2022/09/30 00:01:49;;;;;;;7.63;4.30;;;11.30;76.50;;;;;;4988671;28;20026;-79
2022/09/30 00:04:20;;;;;;;5.95;4.50;;;11.20;76.40;;;;;;4979754;28;20023;-79
2022/09/30 00:06:46;;;;;;;7.28;4.35;;;11.20;76.40;;;;;;4977776;28;20061;-79
2022/09/30 00:09:15;;;;;;;7.00;4.47;;;11.20;76.50;;;;;;4992645;28;20056;-79
2022/09/30 00:11:41;;;;;;;8.88;5.28;;;11.20;76.70;;;;;;4976715;28;20026;-79
2022/09/30 00:14:11;;;;;;;7.97;4.65;;;11.20;76.60;;;;;;4976746;28;20038;-79
2022/09/30 00:16:37;;;;;;;7.00;3.83;;;11.20;76.50;;;;;;4976892;28;20030;-78
2022/09/30 00:19:04;;;;;;;5.75;4.03;;;11.20;76.70;;;;;;4977544;28;20034;-79
2022/09/30 00:21:34;;;;;;;4.97;3.42;;;11.20;76.80;;;;;;4984790;28;20666;-79
2022/09/30 00:24:00;;;;;;;5.60;3.63;;;11.20;76.90;;;;;;4996914;28;20397;-79
2022/09/30 00:26:26;;;;;;;5.47;3.28;;;11.20;76.80;;;;;;4997007;28;20030;-79
2022/09/30 00:28:55;;;;;;;5.05;3.80;;;11.10;76.80;;;;;;4995833;28;20034;-79
2022/09/30 00:31:22;;;;;;;5.10;3.47;;;11.10;77.20;;;;;;4981365;28;20023;-79
2022/09/30 00:34:05;;;;;;;5.30;3.83;;;11.00;77.00;;;;;;4976163;28;20042;-79
2022/09/30 00:36:33;;;;;;;5.18;3.17;;;11.00;76.90;;;;;;4975733;28;20041;-79
2022/09/30 00:38:58;;;;;;;5.47;3.17;;;11.00;77.10;;;;;;4991334;28;20050;-79
2022/09/30 00:41:24;;;;;;;5.35;3.55;;;11.00;77.20;;;;;;4977555;28;20034;-79
2022/09/30 00:43:53;;;;;;;4.97;3.67;;;11.00;77.20;;;;;;4977139;28;20035;-79
2022/09/30 00:46:39;;;;;;;6.82;3.92;;;11.00;77.10;;;;;;4975528;28;20025;-79
2022/09/30 00:49:12;;;;;;;5.35;3.65;;;11.00;77.10;;;;;;4976908;28;20510;-78
2022/09/30 00:51:44;;;;;;;5.18;3.58;;;11.00;77.20;;;;;;4991897;28;20051;-79
2022/09/30 00:54:35;;;;;;;8.45;3.55;;;11.00;77.40;;;;;;4991971;28;20042;-79
2022/09/30 00:57:03;;;;;;;5.63;3.80;;;11.00;77.50;;;;;;4976023;28;20505;-79
2022/09/30 00:59:37;;;;;;;10.55;5.25;;;11.00;77.40;;;;;;4977051;28;20023;-79
2022/09/30 01:02:04;;;;;;;11.30;6.38;;;11.10;77.40;;;;;;4977386;28;20023;-78
2022/09/30 01:04:31;;;;;;;9.63;4.72;;;11.10;77.70;;;;;;4975609;28;20037;-79
2022/09/30 01:07:05;;;;;;;9.20;5.72;;;11.10;77.50;;;;;;4975452;28;20434;-79
2022/09/30 01:09:37;;;;;;;7.13;5.20;;;11.20;77.60;;;;;;4976856;28;20374;-78
2022/09/30 01:12:09;;;;;;;10.27;4.70;;;11.20;77.30;;;;;;4977311;28;20026;-79
2022/09/30 01:14:36;;;;;;;5.60;4.47;;;11.20;77.20;;;;;;4975658;28;20026;-79
2022/09/30 01:17:20;;;;;;;7.20;4.78;;;11.20;77.50;;;;;;4975154;28;20031;-79
2022/09/30 01:20:16;;;;;;;8.13;4.32;;;11.20;77.50;;;;;;4975950;28;20039;-79
2022/09/30 01:23:23;;;;;;;9.57;4.28;;;11.20;77.20;;;;;;4987915;28;20030;-79
2022/09/30 01:25:49;;;;;;;5.97;3.97;;;11.20;77.40;;;;;;4992599;28;20038;-79
2022/09/30 01:28:53;;;;;;;9.10;5.22;;;11.20;77.20;;;;;;4989352;28;20082;-78
2022/09/30 01:31:42;;;;;;;6.70;4.38;;;11.20;77.10;;;;;;4992857;28;20057;-78
2022/09/30 01:34:53;;;;;;;9.20;4.75;;;11.10;77.20;;;;;;4974819;28;20035;-78
2022/09/30 01:37:42;;;;;;;6.10;4.20;;;11.00;77.50;;;;;;4975503;28;20494;-78
2022/09/30 01:40:24;;;;;;;5.28;3.88;;;11.00;77.70;;;;;;4976389;28;20091;-78
2022/09/30 01:43:12;;;;;;;6.30;4.05;;;11.00;77.70;;;;;;4976489;28;20500;-78
2022/09/30 01:45:48;;;;;;;7.90;4.35;;;11.00;77.60;;;;;;4991212;28;20054;-78
2022/09/30 01:48:33;;;;;;;8.70;3.67;;;11.00;77.30;;;;;;4976081;28;20151;-78
2022/09/30 01:51:07;;;;;;;4.63;3.60;;;11.00;77.10;;;;;;4975282;28;20043;-78
2022/09/30 01:53:47;;;;;;;5.85;3.78;;;10.90;77.10;;;;;;4991135;28;20038;-78
2022/09/30 01:56:24;;;;;;;5.90;4.53;;;10.90;77.00;;;;;;4976726;28;20039;-78
2022/09/30 01:58:53;;;;;;;9.82;3.70;;;10.90;76.80;;;;;;4976222;28;20030;-78
2022/09/30 02:01:35;;;;;;;6.88;3.55;;;10.90;76.70;;;;;;4976176;28;20054;-78
2022/09/30 02:04:06;;;;;;;5.35;3.70;;;10.90;76.80;;;;;;4976586;28;20134;-78
2022/09/30 02:06:37;;;;;;;7.47;4.28;;;10.90;76.90;;;;;;4975939;28;20026;-78
2022/09/30 02:09:19;;;;;;;5.72;4.30;;;10.90;77.10;;;;;;4974506;28;20023;-79
2022/09/30 02:11:45;;;;;;;8.20;5.05;;;10.90;77.10;;;;;;4974749;28;20033;-78
2022/09/30 02:14:32;;;;;;;5.95;4.43;;;10.90;77.20;;;;;;4976064;28;20039;-78
2022/09/30 02:17:09;;;;;;;6.30;4.43;;;10.80;77.20;;;;;;4976360;28;20041;-78
2022/09/30 02:20:04;;;;;;;5.22;4.30;;;10.80;77.20;;;;;;4976059;28;20082;-78
2022/09/30 02:22:42;;;;;;;4.60;3.58;;;10.80;77.30;;;;;;4994128;28;20034;-78
2022/09/30 02:25:12;;;;;;;7.22;4.35;;;10.90;77.20;;;;;;4993237;28;20033;-78
2022/09/30 02:27:47;;;;;;;4.13;3.17;;;10.80;77.20;;;;;;4984167;28;20034;-78
2022/09/30 02:30:13;;;;;;;3.70;2.80;;;10.80;77.20;;;;;;4991085;28;20062;-78
2022/09/30 02:32:49;;;;;;;4.15;3.33;;;10.80;77.00;;;;;;4975948;28;20045;-78
2022/09/30 02:35:30;;;;;;;5.07;3.80;;;10.80;76.90;;;;;;4975907;28;20363;-78
2022/09/30 02:38:05;;;;;;;6.40;3.65;;;10.80;77.00;;;;;;4976270;28;20069;-78
2022/09/30 02:40:40;;;;;;;5.18;3.75;;;10.80;76.90;;;;;;4976580;28;20030;-78
2022/09/30 02:43:07;;;;;;;4.28;3.13;;;10.80;76.80;;;;;;4977878;28;20098;-78
2022/09/30 02:46:16;;;;;;;8.55;3.05;;;10.80;76.70;;;;;;4978323;28;20023;-79
2022/09/30 02:49:00;;;;;;;6.05;3.38;;;10.80;77.10;;;;;;4933910;28;20035;-79
2022/09/30 02:52:07;;;;;;;5.43;3.50;;;10.70;76.80;;;;;;4996920;28;20077;-78
2022/09/30 02:54:45;;;;;;;6.32;3.65;;;10.60;76.40;;;;;;5007945;28;20042;-78
2022/09/30 02:57:35;;;;;;;6.80;3.50;;;10.50;77.20;;;;;;4981165;28;20042;-78
2022/09/30 03:00:07;;;;;;;4.23;2.80;;;10.50;77.20;;;;;;4978185;28;20041;-78
2022/09/30 03:02:34;;;;;;;4.68;3.30;;;10.50;77.10;;;;;;4977816;28;20034;-78
2022/09/30 03:05:00;;;;;;;4.70;3.42;;;10.50;77.30;;;;;;4977710;28;20034;-79
2022/09/30 03:07:26;;;;;;;3.13;2.80;;;10.40;77.30;;;;;;4993820;28;20402;-78
2022/09/30 03:10:00;;;;;;;5.00;3.47;;;10.40;77.10;;;;;;4994285;28;20031;-78
2022/09/30 03:12:57;;;;;;;5.20;3.47;;;10.30;77.00;;;;;;4978945;28;20375;-78
2022/09/30 03:15:44;;;;;;;5.13;3.30;;;10.30;77.00;;;;;;4978607;28;20023;-78
2022/09/30 03:18:48;;;;;;;5.43;3.70;;;10.30;77.20;;;;;;4978596;28;20117;-78
2022/09/30 03:21:51;;;;;;;6.28;4.10;;;10.20;77.40;;;;;;4987175;28;20062;-78
2022/09/30 03:24:34;;;;;;;5.05;2.85;;;10.20;77.30;;;;;;4978655;28;20030;-78
2022/09/30 03:27:37;;;;;;;6.70;3.92;;;10.20;77.50;;;;;;4988791;28;20050;-78
2022/09/30 03:30:06;;;;;;;6.63;3.13;;;10.20;77.40;;;;;;4993422;28;20031;-78
2022/09/30 03:32:50;;;;;;;7.10;3.97;;;10.20;77.10;;;;;;4978517;28;20031;-78
2022/09/30 03:35:35;;;;;;;5.65;3.85;;;10.20;77.40;;;;;;4978006;28;20497;-78
2022/09/30 03:38:01;;;;;;;6.03;3.80;;;10.20;77.60;;;;;;4978500;28;20072;-79
2022/09/30 03:40:48;;;;;;;6.38;3.90;;;10.20;77.40;;;;;;4978406;28;20018;-78
2022/09/30 03:43:31;;;;;;;6.63;4.45;;;10.20;77.40;;;;;;4976649;28;20417;-78
2022/09/30 03:46:13;;;;;;;5.15;3.50;;;10.20;77.40;;;;;;4978218;28;20026;-78
2022/09/30 03:48:40;;;;;;;5.70;3.90;;;10.20;77.30;;;;;;4978610;28;20497;-78
2022/09/30 03:51:07;;;;;;;11.05;4.28;;;10.20;77.30;;;;;;4975864;28;20081;-78
2022/09/30 03:53:41;;;;;;;6.80;4.55;;;10.10;77.20;;;;;;4975813;28;20492;-78
2022/09/30 03:56:06;;;;;;;6.65;4.00;;;10.10;77.20;;;;;;4979679;28;20087;-78
2022/09/30 03:58:33;;;;;;;4.38;3.40;;;10.10;77.30;;;;;;4997734;28;20034;-78
2022/09/30 04:00:59;;;;;;;4.03;3.15;;;10.10;77.10;;;;;;4996219;28;20036;-78
2022/09/30 04:03:26;;;;;;;4.82;4.10;;;10.10;76.90;;;;;;4977600;28;20038;-78
2022/09/30 04:05:52;;;;;;;3.75;2.78;;;10.00;76.90;;;;;;4976588;28;20061;-78
2022/09/30 04:08:18;;;;;;;4.80;3.65;;;10.00;76.90;;;;;;4993007;28;20031;-78
2022/09/30 04:10:44;;;;;;;4.45;3.08;;;10.00;76.90;;;;;;4992047;28;20486;-78
2022/09/30 04:13:10;;;;;;;4.13;3.72;;;9.90;76.80;;;;;;4992575;28;20031;-78
2022/09/30 04:15:36;;;;;;;9.00;3.70;;;9.90;77.20;;;;;;4978031;28;20120;-78
2022/09/30 04:18:04;;;;;;;4.95;3.75;;;9.80;77.30;;;;;;4977528;28;20030;-78
2022/09/30 04:20:30;;;;;;;4.10;3.45;;;9.80;77.10;;;;;;4978031;28;20033;-78
2022/09/30 04:23:00;;;;;;;4.22;3.22;;;9.80;76.90;;;;;;4987416;28;20022;-78
2022/09/30 04:25:26;;;;;;;4.80;3.22;;;9.80;77.20;;;;;;4977610;28;20105;-79
2022/09/30 04:27:53;;;;;;;5.50;3.90;;;9.70;77.40;;;;;;4987421;28;20031;-78
2022/09/30 04:30:19;;;;;;;3.63;2.72;;;9.80;77.30;;;;;;4994404;28;20030;-78
2022/09/30 04:32:44;;;;;;;5.53;3.55;;;9.80;77.30;;;;;;4995648;28;20046;-78
2022/09/30 04:35:14;;;;;;;4.72;3.47;;;9.80;77.30;;;;;;4981749;28;20041;-78
2022/09/30 04:37:42;;;;;;;5.68;3.90;;;9.80;77.20;;;;;;4977306;28;20410;-78
2022/09/30 04:40:09;;;;;;;3.58;3.28;;;9.80;77.10;;;;;;4976008;28;20035;-79
2022/09/30 04:42:35;;;;;;;4.70;3.22;;;9.80;77.20;;;;;;4983529;28;20030;-78
2022/09/30 04:45:02;;;;;;;4.65;3.65;;;9.80;77.30;;;;;;4979188;28;20030;-78
2022/09/30 04:47:29;;;;;;;5.72;3.55;;;9.80;77.30;;;;;;4989468;28;20090;-82
2022/09/30 04:49:55;;;;;;;6.03;3.92;;;9.80;77.20;;;;;;4977067;28;20026;-82
2022/09/30 04:52:21;;;;;;;5.10;3.92;;;9.70;76.70;;;;;;4989662;28;20070;-78
2022/09/30 04:54:46;;;;;;;4.85;3.20;;;9.60;76.70;;;;;;4977066;28;20072;-78
2022/09/30 04:57:12;;;;;;;6.15;3.83;;;9.50;77.10;;;;;;4991595;28;20034;-79
2022/09/30 04:59:38;;;;;;;4.25;3.47;;;9.50;77.20;;;;;;4991966;28;20034;-79
2022/09/30 05:02:05;;;;;;;6.80;4.68;;;9.50;77.40;;;;;;4996475;28;20104;-80
2022/09/30 05:04:32;;;;;;;4.35;3.38;;;9.50;77.60;;;;;;4991286;28;20039;-79
2022/09/30 05:07:00;;;;;;;5.78;3.85;;;9.60;77.40;;;;;;4984436;28;20030;-80
2022/09/30 05:09:26;;;;;;;4.78;3.88;;;9.50;77.50;;;;;;4991582;28;20022;-78
2022/09/30 05:11:52;;;;;;;5.18;3.70;;;9.50;77.30;;;;;;4985027;28;20029;-79
2022/09/30 05:14:17;;;;;;;5.30;3.70;;;9.60;77.40;;;;;;4976830;28;20031;-77
2022/09/30 05:16:43;;;;;;;6.43;4.32;;;9.50;77.40;;;;;;4976927;28;20062;-78
2022/09/30 05:19:09;;;;;;;5.45;4.22;;;9.50;77.10;;;;;;4982160;28;20707;-78
2022/09/30 05:21:34;;;;;;;4.95;3.90;;;9.50;77.30;;;;;;4995293;28;20026;-77
2022/09/30 05:24:01;;;;;;;5.63;3.47;;;9.50;77.20;;;;;;4988161;28;20123;-78
2022/09/30 05:26:26;;;;;;;6.03;3.78;;;9.50;77.20;;;;;;4982215;28;20022;-77
2022/09/30 05:28:52;;;;;;;4.70;3.80;;;9.50;77.50;;;;;;4978972;28;20039;-79
2022/09/30 05:31:19;;;;;;;4.78;3.78;;;9.50;77.40;;;;;;4988064;28;20026;-78
2022/09/30 05:33:45;;;;;;;4.55;3.65;;;9.40;77.30;;;;;;4979983;28;20497;-78
2022/09/30 05:36:14;;;;;;;3.55;3.22;;;9.40;77.20;;;;;;4993986;28;20023;-79
2022/09/30 05:38:40;;;;;;;6.38;3.92;;;9.50;77.30;;;;;;4995158;28;20038;-80
2022/09/30 05:41:10;;;;;;;5.38;4.15;;;9.50;76.90;;;;;;4991305;28;20034;-82
2022/09/30 05:43:40;;;;;;;6.28;4.43;;;9.40;77.10;;;;;;4976856;28;20035;-77
2022/09/30 05:46:07;;;;;;;4.95;3.75;;;9.40;77.20;;;;;;4991770;28;20037;-77
2022/09/30 05:48:33;;;;;;;5.53;4.65;;;9.40;77.10;;;;;;4991502;28;20109;-77
2022/09/30 05:51:02;;;;;;;5.55;4.07;;;9.40;77.20;;;;;;4976114;28;20062;-77
2022/09/30 05:53:30;;;;;;;11.52;4.07;;;9.30;76.80;;;;;;4975159;28;20033;-77
2022/09/30 05:55:57;;;;;;;4.93;3.47;;;9.30;76.80;;;;;;4990333;28;20094;-79
2022/09/30 05:58:23;;;;;;;5.13;4.13;;;9.30;76.80;;;;;;4976054;28;20446;-78
2022/09/30 06:00:49;;;;;;;5.10;3.75;;;9.30;76.90;;;;;;4976012;28;20042;-80
2022/09/30 06:03:16;;;;;;;6.25;3.58;;;9.30;77.00;;;;;;5005148;28;20113;-77
2022/09/30 06:05:44;;;;;;;6.32;4.28;;;9.30;76.90;;;;;;4995145;28;20113;-77
2022/09/30 06:08:10;;;;;;;4.20;3.80;;;9.30;77.00;;;;;;4979873;28;20073;-77
2022/09/30 06:10:38;;;;;;;5.60;4.15;;;9.30;77.00;;;;;;4980923;28;20026;-77
2022/09/30 06:13:04;;;;;;;5.70;3.90;;;9.20;77.40;;;;;;4991012;28;20061;-78
2022/09/30 06:15:31;;;;;;;5.47;3.53;;;9.30;77.40;;;;;;4978213;28;20972;-79
2022/09/30 06:17:57;;;;;;;5.82;4.18;;;9.30;77.30;;;;;;4994955;28;20031;-77
2022/09/30 06:20:23;;;;;;;7.32;4.88;;;9.30;77.50;;;;;;4979385;28;20042;-77
2022/09/30 06:22:48;;;;;;;6.28;4.78;;;9.30;77.40;;;;;;4983271;28;20430;-78
2022/09/30 06:25:14;;;;;;;6.15;4.55;;;9.30;77.40;;;;;;4978112;28;20034;-77
2022/09/30 06:27:45;;;;;;;5.38;3.53;;;9.30;77.60;;;;;;4978341;28;20110;-76
2022/09/30 06:30:11;;;;;;;4.20;3.28;;;9.30;77.40;;;;;;4978027;28;20030;-76
2022/09/30 06:32:37;;;;;;;9.02;5.75;;;9.30;77.40;;;;;;4969523;28;20034;-77
2022/09/30 06:35:03;;;;;;;6.05;4.22;;;9.20;77.70;;;;;;4971935;28;20029;-77
2022/09/30 06:37:28;;;;;;;10.18;5.32;;;9.30;77.70;;;;;;4975545;28;20046;-77
2022/09/30 06:39:54;;;;;;;4.28;3.88;;;9.30;77.40;;;;;;4998713;28;20037;-76
2022/09/30 06:42:21;;;;;;;4.18;3.72;;;9.30;77.20;;;;;;4982711;28;20077;-77
2022/09/30 06:44:47;;;;;;;4.25;3.80;;;9.30;77.20;;;;;;4978382;28;20077;-77
2022/09/30 06:47:16;;;;;;;8.05;4.90;;;9.30;77.40;;;;;;4981607;28;20026;-77
2022/09/30 06:49:42;;;;;;;6.60;4.55;;;9.30;77.40;;;;;;5000781;28;20030;-77
2022/09/30 06:52:11;;;;;;;6.35;4.47;;;9.30;77.40;;;;;;4998204;28;20047;-76
2022/09/30 06:54:38;;;;;;;8.02;4.90;;;9.30;77.40;;;;;;4999029;28;20086;-77
2022/09/30 06:57:04;;;;;;;9.32;5.88;;;9.70;77.00;;;;;;4993376;28;20039;-77
2022/09/30 06:59:29;;;;;;;9.88;5.68;;;10.80;75.00;;;;;;4981003;28;20529;-77
2022/09/30 07:01:55;;;;;;;7.05;5.80;;;11.80;72.20;;;;;;4997381;28;20068;-75
2022/09/30 07:04:22;;;;;;;8.80;5.18;;;12.00;71.20;;;;;;4993335;28;20026;-76
2022/09/30 07:06:48;;;;;;;8.48;4.70;;;11.70;71.60;;;;;;5005846;28;20154;-76
2022/09/30 07:09:13;;;;;;;7.03;4.88;;;11.40;72.30;;;;;;4998651;28;20046;-75
2022/09/30 07:11:39;;;;;;;7.35;4.78;;;11.20;73.00;;;;;;4987743;28;20062;-76
2022/09/30 07:14:06;;;;;;;5.88;4.32;;;11.10;73.80;;;;;;4998377;28;20034;-75
2022/09/30 07:16:35;;;;;;;5.63;4.65;;;11.20;74.00;;;;;;4998320;28;20030;-75
2022/09/30 07:19:02;;;;;;;7.18;4.88;;;11.50;73.50;;;;;;4995835;28;20038;-77
2022/09/30 07:21:30;;;;;;;6.07;4.95;;;11.90;72.70;;;;;;4998008;28;20096;-76
2022/09/30 07:23:57;;;;;;;5.28;4.32;;;11.80;72.70;;;;;;4984242;28;20038;-76
2022/09/30 07:26:23;;;;;;;6.45;4.60;;;11.80;72.50;;;;;;4996697;28;20026;-76
2022/09/30 07:28:50;;;;;;;8.93;4.35;;;11.90;72.60;;;;;;4998445;28;20019;-76
2022/09/30 07:31:20;;;;;;;10.25;5.05;;;12.00;72.50;;;;;;4997901;28;20038;-76
2022/09/30 07:33:47;;;;;;;5.95;3.92;;;12.20;72.00;;;;;;4984401;28;20031;-76
2022/09/30 07:36:17;;;;;;;8.90;4.45;;;12.40;71.90;;;;;;4998139;28;20404;-76
2022/09/30 07:38:43;;;;;;;;;;;12.50;71.30;;;;;;4997124;28;20092;-76
2022/09/30 07:41:15;;;;;;;6.70;5.07;;;12.50;71.20;;;;;;4997756;28;19917;-76
2022/09/30 07:43:45;;;;;;;6.30;5.10;;;12.50;71.30;;;;;;4995890;28;20037;-76
2022/09/30 07:46:13;;;;;;;;;;;12.50;71.50;;;;;;4995426;28;20077;-77
2022/09/30 07:48:43;;;;;;;7.05;5.35;;;12.50;71.80;;;;;;4994332;28;19932;-77
2022/09/30 07:51:12;;;;;;;7.07;5.45;;;12.30;72.70;;;;;;4997543;28;20073;-76
2022/09/30 07:53:42;;;;;;;4.32;3.50;;;12.00;73.70;;;;;;4992322;28;20053;-76
2022/09/30 07:56:09;;;;;;;6.72;5.00;;;11.80;75.00;;;;;;5002082;28;20045;-76
2022/09/30 07:58:34;;;;;;;9.82;5.32;;;11.60;75.70;;;;;;4996425;28;20397;-76
2022/09/30 08:01:01;;;;;;;8.00;5.28;;;11.50;76.50;;;;;;4994471;28;20046;-76
2022/09/30 08:03:28;;;;;;;7.72;5.05;;;11.50;76.90;;;;;;4998186;28;20034;-76
2022/09/30 08:05:53;;;;;;;7.30;5.60;;;11.50;77.10;;;;;;5003733;28;20028;-76
2022/09/30 08:08:19;;;;;;;7.50;5.88;;;11.50;77.40;;;;;;4996754;28;20033;-76
2022/09/30 08:10:45;;;;;;;6.43;4.88;;;11.50;77.50;;;;;;4983890;28;20034;-76
2022/09/30 08:13:15;;;;;;;5.85;5.05;;;11.60;77.90;;;;;;4987960;28;20046;-76
2022/09/30 08:15:42;;;;;;;5.68;4.53;;;11.70;78.10;;;;;;4989315;28;20034;-76
2022/09/30 08:18:08;;;;;;;14.40;5.20;;;11.70;77.90;;;;;;4995842;28;21079;-75
2022/09/30 08:20:33;;;;;;;7.40;5.10;;;11.70;78.40;;;;;;4995142;28;20504;-77
2022/09/30 08:22:59;;;;;;;9.38;5.30;;;11.70;78.80;;;;;;4996347;28;20026;-77
2022/09/30 08:25:26;;;;;;;6.38;4.97;;;11.80;79.10;;;;;;4997864;28;20026;-76
2022/09/30 08:27:53;;;;;;;6.55;4.97;;;11.80;79.10;;;;;;4994773;28;20025;-77
2022/09/30 08:30:18;;;;;;;11.68;6.25;;;11.90;79.90;;;;;;4996665;28;20042;-77
2022/09/30 08:32:44;;;;;;;12.68;5.15;;;11.90;79.40;;;;;;4997568;28;20030;-77
2022/09/30 08:35:10;;;;;;;13.18;7.65;;;11.90;79.50;;;;;;4982625;28;20085;-77
2022/09/30 08:37:35;;;;;;;6.30;4.57;;;12.00;79.50;;;;;;4996866;28;20022;-77
2022/09/30 08:40:01;;;;;;;9.55;5.85;;;12.00;79.60;;;;;;4995953;28;20378;-78
2022/09/30 08:42:50;;;;;;;5.50;4.90;;;12.10;80.10;;;;;;4991640;28;20027;-74
2022/09/30 08:45:39;;;;;;;7.03;5.03;;;12.20;79.90;;;;;;4976362;28;20089;-76
2022/09/30 08:48:49;;;;;;;9.50;6.32;;;12.30;80.40;;;;;;5004342;28;20030;-76
2022/09/30 08:51:35;;;;;;;5.97;4.80;;;12.30;80.00;;;;;;4985192;28;20054;-75
2022/09/30 08:54:05;;;;;;;7.40;5.45;;;12.50;80.40;;;;;;4977646;28;20044;-75
2022/09/30 08:56:33;;;;;;;7.90;5.75;;;12.50;79.90;;;;;;4993724;28;20490;-76
2022/09/30 08:59:01;;;;;;;8.57;6.00;;;12.60;79.50;;;;;;4993969;28;20038;-76
2022/09/30 09:01:41;;;;;;;9.23;6.10;;;12.70;79.80;;;;;;4988947;28;20034;-76
2022/09/30 09:04:07;;;;;;;9.80;6.10;;;12.70;80.50;;;;;;4996870;28;20031;-77
2022/09/30 09:06:55;;;;;;;9.77;6.10;;;12.80;79.80;;;;;;4996394;28;20486;-76
2022/09/30 09:09:42;;;;;;;6.93;5.55;;;12.90;79.50;;;;;;4988173;28;20027;-76
2022/09/30 09:12:11;;;;;;;7.90;5.35;;;13.00;80.00;;;;;;4979514;28;20505;-75
2022/09/30 09:14:55;;;;;;;7.80;5.43;;;13.10;80.50;;;;;;4977665;28;20533;-77
2022/09/30 09:17:35;;;;;;;8.43;5.22;;;13.20;80.00;;;;;;4975339;28;20034;-76
2022/09/30 09:20:14;;;;;;;7.40;5.00;;;13.30;79.90;;;;;;4977224;28;20505;-76
2022/09/30 09:22:43;;;;;;;7.13;5.32;;;13.50;80.30;;;;;;5002122;28;20034;-76
2022/09/30 09:25:15;;;;;;;5.65;4.68;;;13.60;79.30;;;;;;4983342;28;20026;-76
2022/09/30 09:27:58;;;;;;;8.77;4.35;;;13.80;79.20;;;;;;4991167;28;20081;-77
2022/09/30 09:30:28;;;;;;;7.75;4.63;;;13.90;79.00;;;;;;4995196;28;20034;-78
2022/09/30 09:33:00;;;;;;;6.13;3.83;;;14.00;78.40;;;;;;4995157;28;20498;-78
2022/09/30 09:35:54;;;;;;;4.47;3.55;;;14.10;78.40;;;;;;4977723;28;20085;-78
2022/09/30 09:38:30;;;;;;;3.85;3.13;;;14.20;78.00;;;;;;4996557;28;20026;-78
2022/09/30 09:41:18;;;;;;;5.07;2.85;;;14.30;77.80;;;;;;4992770;28;20777;-78
2022/09/30 09:44:02;;;;;;;5.40;3.40;;;14.40;78.20;;;;;;4977113;28;20034;-78
2022/09/30 09:46:45;;;;;;;6.45;3.33;;;14.50;77.60;;;;;;5001107;28;20039;-77
2022/09/30 09:49:27;;;;;;;6.30;2.70;;;14.70;77.30;;;;;;4996538;28;20041;-77
2022/09/30 09:51:53;;;;;;;3.85;2.60;;;14.80;76.40;;;;;;5000288;28;20050;-78
2022/09/30 09:54:21;;;;;;;4.82;2.28;;;14.90;76.40;;;;;;4991181;28;20057;-78
2022/09/30 09:56:46;;;;;;;3.00;1.77;;;15.00;75.60;;;;;;4980739;28;20023;-78
2022/09/30 09:59:17;;;;;;;3.78;1.48;;;15.20;75.60;;;;;;4980841;28;20030;-78
2022/09/30 10:01:46;;;;;;;2.78;1.67;;;15.20;76.00;;;;;;4992831;28;20401;-78
2022/09/30 10:04:22;;;;;;;3.63;1.90;;;15.30;75.60;;;;;;4999654;28;20029;-78
2022/09/30 10:06:53;;;;;;;2.10;1.10;;;15.30;75.10;;;;;;4997766;28;20030;-77
2022/09/30 10:09:21;;;;;;;;;;;15.30;74.40;;;;;;4997351;28;20436;-77
2022/09/30 10:11:47;;;;;;;3.50;1.52;;;15.30;74.90;;;;;;4997192;28;19929;-77
2022/09/30 10:14:20;;;;;;;3.55;1.58;;;15.30;74.40;;;;;;4999319;28;20030;-76
2022/09/30 10:16:47;;;;;;;2.55;1.48;;;15.30;74.80;;;;;;4998636;28;20476;-76
2022/09/30 10:19:26;;;;;;;2.80;1.30;;;15.30;74.50;;;;;;4999083;28;20022;-77
2022/09/30 10:22:07;;;;;;;2.63;1.73;;;15.30;74.30;;;;;;4998712;28;20073;-79
2022/09/30 10:24:34;;;;;;;2.60;1.65;;;15.30;74.30;;;;;;4988676;28;20031;-76
2022/09/30 10:27:00;;;;;;;4.00;1.58;;;15.50;73.50;;;;;;4997008;28;20067;-75
2022/09/30 10:29:30;;;;;;;2.20;1.42;;;15.40;73.30;;;;;;4998990;28;20849;-75
2022/09/30 10:32:06;;;;;;;3.53;1.52;;;15.50;73.10;;;;;;4997461;28;20098;-76
2022/09/30 10:34:43;;;;;;;2.20;1.50;;;15.60;72.80;;;;;;4979632;28;20027;-81
2022/09/30 10:37:21;;;;;;;2.50;1.42;;;15.60;73.10;;;;;;4989214;28;20448;-80
2022/09/30 10:40:03;;;;;;;2.35;1.70;;;15.70;73.00;;;;;;4984312;28;20502;-83
2022/09/30 10:42:34;;;;;;;2.25;1.65;;;15.80;73.00;;;;;;4981341;28;20037;-79
2022/09/30 10:45:17;;;;;;;2.97;1.80;;;15.90;72.10;;;;;;4996517;28;20057;-80
2022/09/30 10:47:47;;;;;;;2.45;1.45;;;16.00;72.30;;;;;;4986317;28;20022;-81
2022/09/30 10:50:16;;;;;;;1.92;1.33;;;16.10;71.90;;;;;;4993748;28;20037;-81
2022/09/30 10:53:12;;;;;;;2.05;1.25;;;16.30;71.70;;;;;;4997622;28;20026;-80
2022/09/30 10:55:42;;;;;;;2.03;1.20;;;16.40;72.10;;;;;;4979832;28;20033;-80
2022/09/30 10:58:35;;;;;;;3.38;1.10;;;16.40;70.90;;;;;;4991989;28;20069;-80
2022/09/30 11:01:26;;;;;;;5.10;1.10;;;16.40;70.00;;;;;;4979151;28;20054;-80
2022/09/30 11:04:04;;;;;;;2.67;1.30;;;16.40;70.90;;;;;;4980061;28;20043;-81
2022/09/30 11:06:37;;;;;;;1.92;0.93;;;16.50;71.10;;;;;;4992084;28;20030;-78
2022/09/30 11:09:33;;;;;;;2.25;1.40;;;16.50;70.80;;;;;;4994887;28;20027;-79
2022/09/30 11:12:28;;;;;;;2.75;1.73;;;16.60;70.50;;;;;;4981209;28;20027;-80
2022/09/30 11:15:02;;;;;;;1.73;0.90;;;16.60;69.10;;;;;;4990655;28;20449;-80
2022/09/30 11:18:04;;;;;;;3.03;1.20;;;16.70;69.70;;;;;;4994356;28;20022;-81
2022/09/30 11:20:44;;;;;;;2.33;1.27;;;16.70;68.90;;;;;;4994379;28;20026;-81
2022/09/30 11:23:32;;;;;;;4.18;1.38;;;16.70;68.30;;;;;;4993675;28;20626;-81
2022/09/30 11:26:28;;;;;;;2.13;0.98;;;16.80;68.40;;;;;;4994943;28;20041;-82
2022/09/30 11:29:17;;;;;;;1.73;0.88;;;16.80;68.80;;;;;;4996199;28;20030;-80
2022/09/30 11:31:50;;;;;;;2.50;1.00;;;16.80;67.80;;;;;;4994212;28;20088;-80
2022/09/30 11:34:33;;;;;;;4.03;0.70;;;16.90;67.80;;;;;;4996116;28;20088;-81
2022/09/30 11:37:39;;;;;;;1.73;0.75;;;16.90;66.90;;;;;;4995381;28;20058;-81
2022/09/30 11:40:23;;;;;;;1.70;0.80;;;17.00;67.10;;;;;;4996986;28;20037;-81
2022/09/30 11:43:01;;;;;;;1.38;0.70;;;17.10;66.50;;;;;;4993039;28;20040;-80
2022/09/30 11:45:52;;;;;;;1.40;0.73;;;17.20;66.30;;;;;;4996120;28;20034;-80
2022/09/30 11:48:27;;;;;;;1.50;0.80;;;17.20;64.20;;;;;;4996184;28;20022;-81
2022/09/30 11:51:04;;;;;;;1.88;0.82;;;17.20;64.90;;;;;;5010268;28;20445;-79
2022/09/30 11:53:44;;;;;;;0.88;0.52;;;17.30;65.40;;;;;;4997032;28;20022;-79
2022/09/30 11:56:28;;;;;;;1.80;0.80;;;17.40;64.80;;;;;;4997702;28;20397;-81
2022/09/30 11:58:59;;;;;;;3.05;0.88;;;17.30;64.70;;;;;;4991790;28;20028;-81
2022/09/30 12:01:37;;;;;;;2.03;1.08;;;17.40;64.20;;;;;;4996325;28;20041;-81
2022/09/30 12:04:14;;;;;;;1.40;0.75;;;17.40;64.00;;;;;;4994870;28;20026;-80
2022/09/30 12:07:03;;;;;;;1.65;1.08;;;17.40;64.90;;;;;;4993315;28;20493;-81
2022/09/30 12:09:53;;;;;;;1.92;0.80;;;17.40;63.90;;;;;;5003752;28;20357;-81
2022/09/30 12:12:19;;;;;;;1.98;0.90;;;17.50;63.20;;;;;;4993231;28;20026;-80
2022/09/30 12:14:56;;;;;;;5.22;1.00;;;17.60;64.40;;;;;;4997251;28;20564;-80
2022/09/30 12:17:31;;;;;;;1.20;0.80;;;17.70;64.10;;;;;;4995843;28;20030;-80
2022/09/30 12:20:03;;;;;;;1.45;0.95;;;17.70;63.00;;;;;;4994345;28;20036;-80
2022/09/30 12:22:35;;;;;;;1.52;0.88;;;17.80;63.30;;;;;;4989178;28;20523;-80
2022/09/30 12:25:10;;;;;;;3.25;1.05;;;17.80;63.40;;;;;;4996480;28;20026;-80
2022/09/30 12:27:48;;;;;;;1.63;0.85;;;17.80;63.90;;;;;;4995270;28;20093;-80
2022/09/30 12:30:17;;;;;;;1.13;0.70;;;17.90;62.60;;;;;;4993653;28;20019;-80
2022/09/30 12:32:58;;;;;;;1.65;0.90;;;17.90;62.90;;;;;;4997103;28;20034;-80
2022/09/30 12:35:55;;;;;;;1.15;0.68;;;17.90;62.50;;;;;;5010884;28;20030;-81
2022/09/30 12:38:43;;;;;;;1.80;0.85;;;17.90;61.50;;;;;;4993780;28;20045;-80
2022/09/30 12:41:40;;;;;;;2.08;1.00;;;17.90;61.50;;;;;;4996534;28;20393;-80
2022/09/30 12:44:20;;;;;;;2.03;1.10;;;17.90;61.80;;;;;;4995902;28;20105;-79
2022/09/30 12:47:07;;;;;;;1.65;0.90;;;18.00;61.90;;;;;;4995939;28;20073;-81
2022/09/30 12:49:36;;;;;;;1.92;1.02;;;17.90;61.20;;;;;;4994140;28;20030;-80
2022/09/30 12:52:11;;;;;;;1.30;0.93;;;18.00;61.70;;;;;;4996630;28;20066;-81
2022/09/30 12:54:54;;;;;;;1.65;0.90;;;17.90;61.80;;;;;;4993302;28;20583;-81
2022/09/30 12:57:27;;;;;;;2.17;1.25;;;17.90;61.90;;;;;;4990485;28;20027;-80
2022/09/30 13:00:01;;;;;;;3.25;1.33;;;17.90;61.70;;;;;;4993719;28;20476;-80
2022/09/30 13:02:26;;;;;;;2.50;1.33;;;17.90;62.40;;;;;;4995256;28;20436;-79
2022/09/30 13:04:52;;;;;;;1.65;1.10;;;18.00;62.50;;;;;;4993082;28;20077;-81
2022/09/30 13:07:21;;;;;;;1.88;1.00;;;18.00;61.60;;;;;;4995082;28;20477;-81
2022/09/30 13:10:29;;;;;;;4.47;1.30;;;17.90;61.70;;;;;;4996046;28;20030;-81
2022/09/30 13:13:10;;;;;;;2.45;0.90;;;17.90;61.20;;;;;;4992036;28;20604;-80
2022/09/30 13:15:41;;;;;;;2.08;0.90;;;17.90;62.00;;;;;;4994626;28;20029;-81
2022/09/30 13:18:18;;;;;;;1.60;0.93;;;17.90;61.70;;;;;;4996007;28;20034;-80
2022/09/30 13:21:07;;;;;;;1.42;0.75;;;17.90;61.20;;;;;;4994256;28;20145;-80
2022/09/30 13:23:41;;;;;;;1.15;0.70;;;17.90;61.10;;;;;;4992791;28;20030;-80
2022/09/30 13:26:27;;;;;;;2.05;1.00;;;17.90;61.20;;;;;;4993268;28;20022;-81